createdAt,value
2023-03-01T00:01:05.183Z,11.45
2023-03-01T00:03:33.748Z,12.60
2023-03-01T00:06:01.041Z,10.30
2023-03-01T00:08:28.124Z,12.60
2023-03-01T00:11:09.899Z,11.23
2023-03-01T00:13:36.785Z,11.40
2023-03-01T00:16:05.368Z,11.80
2023-03-01T00:18:32.153Z,11.70
2023-03-01T00:20:58.848Z,11.68
2023-03-01T00:23:25.824Z,12.07
2023-03-01T00:25:52.850Z,11.82
2023-03-01T00:28:19.907Z,11.90
2023-03-01T00:30:46.573Z,10.55
2023-03-01T00:33:13.471Z,12.05
2023-03-01T00:35:40.204Z,10.40
2023-03-01T00:38:07.038Z,11.00
2023-03-01T00:40:35.464Z,12.48
2023-03-01T00:43:02.828Z,11.07
2023-03-01T00:45:30.359Z,11.38
2023-03-01T00:47:56.961Z,11.20
2023-03-01T00:50:24.649Z,11.13
2023-03-01T00:52:55.459Z,14.05
2023-03-01T00:55:22.084Z,12.13
2023-03-01T00:57:48.664Z,9.38
2023-03-01T01:00:16.025Z,10.50
2023-03-01T01:02:42.925Z,9.98
2023-03-01T01:05:09.705Z,10.07
2023-03-01T01:07:36.513Z,10.02
2023-03-01T01:10:04.050Z,10.45
2023-03-01T01:12:30.649Z,9.90
2023-03-01T01:14:57.494Z,10.80
2023-03-01T01:17:24.101Z,11.00
2023-03-01T01:19:50.749Z,10.90
2023-03-01T01:22:17.373Z,10.45
2023-03-01T01:24:43.995Z,11.05
2023-03-01T01:27:10.603Z,11.32
2023-03-01T01:29:37.640Z,10.73
2023-03-01T01:32:04.454Z,9.68
2023-03-01T01:34:31.149Z,11.40
2023-03-01T01:36:58.178Z,9.80
2023-03-01T01:39:24.842Z,12.15
2023-03-01T01:41:51.449Z,11.30
2023-03-01T01:44:26.911Z,10.45
2023-03-01T01:49:26.737Z,10.43
2023-03-01T01:52:01.137Z,9.68
2023-03-01T01:54:37.127Z,9.43
2023-03-01T01:57:12.345Z,9.73
2023-03-01T01:59:40.240Z,9.60
2023-03-01T02:02:06.864Z,10.20
2023-03-01T02:04:33.991Z,9.30
2023-03-01T02:07:08.790Z,10.25
2023-03-01T02:09:35.667Z,11.45
2023-03-01T02:12:03.408Z,10.20
2023-03-01T02:14:30.001Z,11.15
2023-03-01T02:16:56.620Z,10.40
2023-03-01T02:19:32.907Z,11.13
2023-03-01T02:22:22.317Z,10.68
2023-03-01T02:24:53.397Z,11.15
2023-03-01T02:27:22.896Z,10.55
2023-03-01T02:29:50.053Z,10.52
2023-03-01T02:32:17.762Z,10.07
2023-03-01T02:34:44.488Z,9.07
2023-03-01T02:37:15.842Z,10.73
2023-03-01T02:39:48.905Z,11.38
2023-03-01T02:42:22.863Z,9.88
2023-03-01T02:44:50.764Z,9.75
2023-03-01T02:47:17.423Z,10.23
2023-03-01T02:49:44.044Z,11.32
2023-03-01T02:52:37.898Z,9.93
2023-03-01T02:55:12.033Z,10.48
2023-03-01T02:57:40.838Z,9.97
2023-03-01T03:00:10.858Z,10.70
2023-03-01T03:02:37.975Z,10.07
2023-03-01T03:05:19.656Z,11.13
2023-03-01T03:07:47.865Z,12.15
2023-03-01T03:10:17.605Z,10.13
2023-03-01T03:12:44.212Z,10.95
2023-03-01T03:15:13.679Z,11.57
2023-03-01T03:17:43.729Z,11.10
2023-03-01T03:20:12.915Z,10.43
2023-03-01T03:22:40.911Z,10.68
2023-03-01T03:25:11.416Z,10.35
2023-03-01T03:27:41.442Z,12.43
2023-03-01T03:30:13.280Z,11.68
2023-03-01T03:32:53.064Z,11.77
2023-03-01T03:35:26.393Z,12.82
2023-03-01T03:38:02.692Z,11.18
2023-03-01T03:40:32.471Z,10.85
2023-03-01T03:42:59.055Z,12.18
2023-03-01T03:45:25.720Z,11.73
2023-03-01T03:47:52.379Z,11.23
2023-03-01T03:50:19.167Z,11.80
2023-03-01T03:52:46.108Z,11.82
2023-03-01T03:55:13.474Z,9.70
2023-03-01T03:57:41.546Z,10.90
2023-03-01T04:00:13.682Z,12.25
2023-03-01T04:02:42.188Z,11.52
2023-03-01T04:05:10.126Z,12.55
2023-03-01T04:07:37.545Z,11.57
2023-03-01T04:10:05.704Z,11.77
2023-03-01T04:12:35.018Z,10.80
2023-03-01T04:15:14.055Z,12.38
2023-03-01T04:17:41.245Z,12.50
2023-03-01T04:20:12.228Z,12.32
2023-03-01T04:22:39.733Z,12.45
2023-03-01T04:25:07.227Z,11.00
2023-03-01T04:27:37.859Z,12.93
2023-03-01T04:30:04.859Z,12.40
2023-03-01T04:32:31.537Z,12.52
2023-03-01T04:34:58.113Z,12.43
2023-03-01T04:37:25.091Z,13.15
2023-03-01T04:39:51.732Z,10.40
2023-03-01T04:42:19.052Z,11.35
2023-03-01T04:44:46.300Z,10.13
2023-03-01T04:47:13.307Z,12.18
2023-03-01T04:49:39.883Z,11.98
2023-03-01T04:52:06.701Z,10.82
2023-03-01T04:54:34.265Z,11.55
2023-03-01T04:57:02.459Z,14.98
2023-03-01T04:59:29.867Z,12.25
2023-03-01T05:01:57.602Z,10.35
2023-03-01T05:04:25.388Z,11.88
2023-03-01T05:06:52.082Z,11.27
2023-03-01T05:09:18.814Z,10.88
2023-03-01T05:11:45.587Z,11.63
2023-03-01T05:14:12.354Z,13.55
2023-03-01T05:16:39.185Z,11.93
2023-03-01T05:19:12.389Z,10.88
2023-03-01T05:21:59.983Z,13.73
2023-03-01T05:24:27.725Z,10.45
2023-03-01T05:26:54.880Z,12.68
2023-03-01T05:29:26.006Z,11.85
2023-03-01T05:31:54.562Z,11.15
2023-03-01T05:34:47.764Z,10.23
2023-03-01T05:37:14.793Z,12.45
2023-03-01T05:39:42.818Z,12.13
2023-03-01T05:42:12.290Z,12.18
2023-03-01T05:44:39.195Z,12.73
2023-03-01T05:47:05.893Z,11.35
2023-03-01T05:49:33.025Z,11.20
2023-03-01T05:51:59.684Z,12.02
2023-03-01T05:54:26.403Z,12.38
2023-03-01T05:56:52.990Z,10.90
2023-03-01T05:59:19.599Z,10.93
2023-03-01T06:01:46.205Z,10.60
2023-03-01T06:04:12.917Z,11.75
2023-03-01T06:06:39.574Z,16.08
2023-03-01T06:09:08.300Z,11.68
2023-03-01T06:11:35.975Z,10.02
2023-03-01T06:14:02.603Z,12.07
2023-03-01T06:16:29.681Z,11.35
2023-03-01T06:18:56.500Z,15.75
2023-03-01T06:21:23.103Z,12.90
2023-03-01T06:23:49.638Z,11.48
2023-03-01T06:26:16.318Z,13.70
2023-03-01T06:28:42.887Z,12.85
2023-03-01T06:31:10.426Z,13.02
2023-03-01T06:33:37.180Z,12.88
2023-03-01T06:36:04.151Z,10.63
2023-03-01T06:38:30.880Z,10.32
2023-03-01T06:40:57.674Z,10.70
2023-03-01T06:43:24.636Z,11.65
2023-03-01T06:45:51.531Z,12.25
2023-03-01T06:48:18.373Z,11.80
2023-03-01T06:50:45.118Z,10.38
2023-03-01T06:53:11.823Z,9.77
2023-03-01T06:55:38.460Z,10.50
2023-03-01T06:58:05.191Z,11.02
2023-03-01T07:00:32.069Z,10.45
2023-03-01T07:03:03.421Z,11.25
2023-03-01T07:05:31.042Z,11.73
2023-03-01T07:07:57.732Z,10.70
2023-03-01T07:10:24.717Z,13.65
2023-03-01T07:12:51.340Z,11.80
2023-03-01T07:15:17.973Z,12.85
2023-03-01T07:17:45.636Z,12.48
2023-03-01T07:20:12.738Z,12.30
2023-03-01T07:22:42.384Z,12.82
2023-03-01T07:25:10.419Z,13.25
2023-03-01T07:27:37.349Z,12.60
2023-03-01T07:30:04.790Z,12.10
2023-03-01T07:32:31.599Z,13.02
2023-03-01T07:34:58.226Z,12.23
2023-03-01T07:37:24.871Z,12.70
2023-03-01T07:39:51.444Z,13.98
2023-03-01T07:42:18.054Z,11.75
2023-03-01T07:44:44.702Z,11.80
2023-03-01T07:47:11.322Z,13.27
2023-03-01T07:49:37.930Z,14.90
2023-03-01T07:52:04.690Z,10.55
2023-03-01T07:54:31.300Z,12.27
2023-03-01T07:56:58.177Z,12.82
2023-03-01T07:59:29.884Z,12.75
2023-03-01T08:01:57.603Z,12.57
2023-03-01T08:04:25.892Z,14.32
2023-03-01T08:06:52.653Z,10.68
2023-03-01T08:09:19.466Z,12.38
2023-03-01T08:11:46.148Z,13.70
2023-03-01T08:14:12.966Z,12.93
2023-03-01T08:16:39.892Z,13.55
2023-03-01T08:19:11.916Z,12.57
2023-03-01T08:21:38.983Z,12.40
2023-03-01T08:24:06.944Z,12.70
2023-03-01T08:26:34.214Z,13.45
2023-03-01T08:29:01.423Z,11.00
2023-03-01T08:31:36.924Z,12.15
2023-03-01T08:34:08.784Z,12.55
2023-03-01T08:36:41.559Z,11.30
2023-03-01T08:39:09.485Z,11.45
2023-03-01T08:41:36.212Z,11.35
2023-03-01T08:44:04.092Z,11.05
2023-03-01T08:46:33.636Z,11.90
2023-03-01T08:49:00.644Z,12.27
2023-03-01T08:51:27.619Z,11.43
2023-03-01T08:53:54.352Z,11.85
2023-03-01T08:56:21.550Z,12.18
2023-03-01T08:58:49.246Z,11.55
2023-03-01T09:01:17.760Z,11.93
2023-03-01T09:03:45.171Z,11.95
2023-03-01T09:06:12.390Z,10.60
2023-03-01T09:08:40.598Z,13.88
2023-03-01T09:11:09.024Z,11.80
2023-03-01T09:13:35.775Z,14.00
2023-03-01T09:16:04.027Z,12.57
2023-03-01T09:18:30.710Z,10.90
2023-03-01T09:21:08.971Z,10.90
2023-03-01T09:23:43.338Z,9.68
2023-03-01T09:26:13.248Z,11.50
2023-03-01T09:28:41.932Z,10.82
2023-03-01T09:31:08.630Z,12.93
2023-03-01T09:33:35.582Z,9.15
2023-03-01T09:36:04.782Z,11.73
2023-03-01T09:38:32.263Z,11.15
2023-03-01T09:40:58.952Z,12.95
2023-03-01T09:43:46.598Z,10.13
2023-03-01T09:46:17.722Z,11.82
2023-03-01T09:48:51.918Z,9.32
2023-03-01T09:51:23.637Z,10.93
2023-03-01T09:53:50.345Z,11.00
2023-03-01T09:56:38.113Z,9.18
2023-03-01T09:59:16.750Z,12.10
2023-03-01T10:02:12.655Z,11.25
2023-03-01T10:04:47.471Z,9.55
2023-03-01T10:07:43.818Z,12.45
2023-03-01T10:10:19.367Z,10.77
2023-03-01T10:12:46.323Z,11.25
2023-03-01T10:15:16.657Z,10.70
2023-03-01T10:17:49.509Z,9.10
2023-03-01T10:20:23.535Z,10.75
2023-03-01T10:22:56.029Z,11.80
2023-03-01T10:25:43.536Z,10.90
2023-03-01T10:28:32.668Z,10.57
2023-03-01T10:31:00.132Z,10.50
2023-03-01T10:33:36.928Z,8.60
2023-03-01T10:36:03.940Z,8.85
2023-03-01T10:38:32.250Z,9.18
2023-03-01T10:41:06.925Z,8.90
2023-03-01T10:43:48.154Z,9.00
2023-03-01T10:46:27.184Z,8.70
2023-03-01T10:49:16.078Z,9.50
2023-03-01T10:51:45.083Z,9.20
2023-03-01T10:54:25.625Z,8.73
2023-03-01T10:56:54.913Z,9.30
2023-03-01T10:59:39.280Z,8.00
2023-03-01T11:02:24.120Z,8.30
2023-03-01T11:05:20.583Z,8.80
2023-03-01T11:07:53.500Z,8.50
2023-03-01T11:10:31.008Z,9.27
2023-03-01T11:13:16.109Z,8.85
2023-03-01T11:15:43.436Z,8.95
2023-03-01T11:18:34.022Z,7.63
2023-03-01T11:21:04.904Z,8.77
2023-03-01T11:23:31.822Z,8.48
2023-03-01T11:26:05.375Z,6.88
2023-03-01T11:28:32.068Z,8.07
2023-03-01T11:31:15.112Z,8.13
2023-03-01T11:33:52.033Z,7.53
2023-03-01T11:36:40.612Z,8.07
2023-03-01T11:39:21.799Z,9.68
2023-03-01T11:41:53.170Z,7.82
2023-03-01T11:44:26.602Z,7.82
2023-03-01T11:47:33.950Z,8.07
2023-03-01T11:50:19.551Z,9.57
2023-03-01T11:53:08.476Z,8.18
2023-03-01T11:55:46.800Z,8.18
2023-03-01T11:58:24.269Z,9.57
2023-03-01T12:01:12.133Z,7.57
2023-03-01T12:03:47.756Z,8.30
2023-03-01T12:06:24.900Z,7.20
2023-03-01T12:09:06.529Z,7.93
2023-03-01T12:11:52.069Z,7.72
2023-03-01T12:14:39.765Z,8.10
2023-03-01T12:17:31.013Z,8.90
2023-03-01T12:19:58.661Z,8.27
2023-03-01T12:22:32.196Z,8.05
2023-03-01T12:24:58.718Z,6.80
2023-03-01T12:27:52.738Z,8.57
2023-03-01T12:30:39.813Z,8.38
2023-03-01T12:33:12.669Z,7.43
2023-03-01T12:35:57.315Z,12.68
2023-03-01T12:38:38.504Z,8.35
2023-03-01T12:41:17.286Z,8.85
2023-03-01T12:44:19.348Z,8.25
2023-03-01T12:47:04.735Z,8.80
2023-03-01T12:52:11.227Z,7.05
2023-03-01T12:54:38.385Z,7.05
2023-03-01T12:57:16.586Z,7.22
2023-03-01T13:00:09.546Z,7.25
2023-03-01T13:02:53.526Z,7.20
2023-03-01T13:05:41.910Z,6.30
2023-03-01T13:08:16.839Z,7.70
2023-03-01T13:13:23.632Z,8.90
2023-03-01T13:15:52.248Z,8.32
2023-03-01T13:18:24.005Z,8.02
2023-03-01T13:21:01.594Z,7.85
2023-03-01T13:23:37.384Z,7.00
2023-03-01T13:26:16.935Z,7.70
2023-03-01T13:28:47.440Z,6.43
2023-03-01T13:31:17.212Z,6.97
2023-03-01T13:33:48.077Z,7.05
2023-03-01T13:36:30.446Z,6.93
2023-03-01T13:39:32.313Z,9.13
2023-03-01T13:42:00.935Z,5.35
2023-03-01T13:44:39.770Z,5.90
2023-03-01T13:47:14.895Z,6.57
2023-03-01T13:49:48.712Z,8.68
2023-03-01T13:52:44.528Z,7.95
2023-03-01T13:55:36.003Z,7.78
2023-03-01T13:58:06.436Z,5.72
2023-03-01T14:00:38.424Z,6.70
2023-03-01T14:03:12.633Z,6.38
2023-03-01T14:05:41.119Z,5.75
2023-03-01T14:08:20.924Z,5.18
2023-03-01T14:11:02.844Z,6.93
2023-03-01T14:13:54.313Z,6.35
2023-03-01T14:16:29.683Z,6.50
2023-03-01T14:19:42.081Z,6.00
2023-03-01T14:22:29.464Z,13.45
2023-03-01T14:25:01.962Z,8.73
2023-03-01T14:27:42.877Z,7.50
2023-03-01T14:30:16.527Z,8.52
2023-03-01T14:32:43.155Z,7.32
2023-03-01T14:35:39.894Z,6.57
2023-03-01T14:38:06.593Z,5.47
2023-03-01T14:40:35.615Z,6.03
2023-03-01T14:43:09.572Z,6.18
2023-03-01T14:45:36.414Z,6.57
2023-03-01T14:48:05.946Z,5.85
2023-03-01T14:50:35.022Z,7.63
2023-03-01T14:53:06.409Z,5.55
2023-03-01T14:55:42.666Z,6.38
2023-03-01T14:58:14.734Z,6.88
2023-03-01T15:01:00.800Z,6.72
2023-03-01T15:03:32.514Z,7.00
2023-03-01T15:06:01.038Z,6.38
2023-03-01T15:08:33.949Z,5.55
2023-03-01T15:11:25.931Z,7.13
2023-03-01T15:13:53.390Z,6.90
2023-03-01T15:16:23.533Z,6.60
2023-03-01T15:18:56.072Z,6.70
2023-03-01T15:21:25.533Z,6.32
2023-03-01T15:23:54.847Z,8.50
2023-03-01T15:26:30.557Z,6.43
2023-03-01T15:28:59.288Z,6.32
2023-03-01T15:31:31.091Z,5.47
2023-03-01T15:34:23.146Z,5.70
2023-03-01T15:36:51.007Z,6.97
2023-03-01T15:39:39.040Z,5.57
2023-03-01T15:42:13.589Z,6.18
2023-03-01T15:44:44.299Z,5.78
2023-03-01T15:47:27.264Z,6.43
2023-03-01T15:49:56.045Z,7.32
2023-03-01T15:52:40.826Z,6.90
2023-03-01T15:55:16.910Z,6.88
2023-03-01T15:57:43.513Z,5.90
2023-03-01T16:00:12.397Z,7.07
2023-03-01T16:02:39.325Z,6.65
2023-03-01T16:05:06.687Z,6.35
2023-03-01T16:07:33.282Z,6.15
2023-03-01T16:09:59.849Z,6.88
2023-03-01T16:12:26.487Z,7.63
2023-03-01T16:14:54.000Z,7.05
2023-03-01T16:17:20.672Z,7.55
2023-03-01T16:19:47.280Z,7.57
2023-03-01T16:22:13.920Z,7.10
2023-03-01T16:24:41.932Z,7.78
2023-03-01T16:27:08.567Z,7.18
2023-03-01T16:29:35.319Z,7.13
2023-03-01T16:32:03.041Z,8.02
2023-03-01T16:34:29.938Z,7.38
2023-03-01T16:36:56.577Z,8.48
2023-03-01T16:39:23.377Z,6.97
2023-03-01T16:41:49.916Z,7.47
2023-03-01T16:44:16.480Z,6.03
2023-03-01T16:46:44.476Z,7.03
2023-03-01T16:49:11.101Z,6.82
2023-03-01T16:51:38.038Z,6.10
2023-03-01T16:54:05.567Z,8.35
2023-03-01T16:56:34.005Z,6.35
2023-03-01T16:59:03.177Z,6.18
2023-03-01T17:01:38.334Z,6.85
2023-03-01T17:04:05.140Z,6.43
2023-03-01T17:06:33.265Z,7.13
2023-03-01T17:09:00.345Z,8.07
2023-03-01T17:11:26.924Z,9.50
2023-03-01T17:13:53.613Z,7.28
2023-03-01T17:16:21.174Z,7.05
2023-03-01T17:18:48.100Z,8.30
2023-03-01T17:21:15.056Z,6.70
2023-03-01T17:23:43.771Z,9.70
2023-03-01T17:26:10.364Z,7.95
2023-03-01T17:28:37.697Z,7.55
2023-03-01T17:31:06.383Z,7.70
2023-03-01T17:33:33.161Z,8.93
2023-03-01T17:36:00.726Z,6.95
2023-03-01T17:38:27.647Z,7.53
2023-03-01T17:40:54.230Z,9.43
2023-03-01T17:43:20.854Z,7.97
2023-03-01T17:45:48.821Z,7.60
2023-03-01T17:48:16.353Z,7.88
2023-03-01T17:50:43.324Z,9.32
2023-03-01T17:53:10.341Z,9.52
2023-03-01T17:55:38.045Z,7.05
2023-03-01T17:58:05.891Z,6.97
2023-03-01T18:00:32.919Z,8.93
2023-03-01T18:02:59.765Z,9.45
2023-03-01T18:05:26.721Z,10.82
2023-03-01T18:07:53.462Z,8.23
2023-03-01T18:10:20.685Z,9.43
2023-03-01T18:12:47.245Z,9.55
2023-03-01T18:15:13.843Z,7.57
2023-03-01T18:17:40.403Z,8.85
2023-03-01T18:20:07.589Z,7.47
2023-03-01T18:22:34.201Z,8.57
2023-03-01T18:25:00.880Z,9.07
2023-03-01T18:27:27.594Z,9.60
2023-03-01T18:29:54.886Z,8.45
2023-03-01T18:32:22.103Z,8.23
2023-03-01T18:34:48.748Z,7.53
2023-03-01T18:37:16.667Z,10.63
2023-03-01T18:39:43.450Z,9.68
2023-03-01T18:42:10.038Z,9.15
2023-03-01T18:44:36.712Z,8.40
2023-03-01T18:47:03.270Z,9.20
2023-03-01T18:49:29.876Z,8.88
2023-03-01T18:51:56.662Z,9.15
2023-03-01T18:54:23.486Z,8.23
2023-03-01T18:56:50.056Z,8.73
2023-03-01T18:59:16.702Z,8.68
2023-03-01T19:01:43.415Z,11.52
2023-03-01T19:04:11.305Z,9.27
2023-03-01T19:06:38.045Z,7.97
2023-03-01T19:09:06.128Z,8.52
2023-03-01T19:11:34.051Z,8.02
2023-03-01T19:14:01.340Z,9.90
2023-03-01T19:16:31.038Z,8.50
2023-03-01T19:19:00.483Z,10.73
2023-03-01T19:21:29.338Z,9.13
2023-03-01T19:23:57.158Z,9.65
2023-03-01T19:26:25.545Z,9.43
2023-03-01T19:28:53.102Z,10.40
2023-03-01T19:31:24.146Z,9.35
2023-03-01T19:33:51.330Z,9.52
2023-03-01T19:36:21.410Z,10.45
2023-03-01T19:38:48.073Z,9.15
2023-03-01T19:41:17.554Z,9.55
2023-03-01T19:43:45.709Z,9.10
2023-03-01T19:46:12.747Z,10.90
2023-03-01T19:48:41.957Z,9.05
2023-03-01T19:51:09.019Z,9.88
2023-03-01T19:53:37.329Z,10.02
2023-03-01T19:56:04.480Z,9.70
2023-03-01T19:58:32.118Z,9.70
2023-03-01T20:00:59.147Z,9.18
2023-03-01T20:03:30.899Z,9.18
2023-03-01T20:05:58.455Z,10.18
2023-03-01T20:08:25.434Z,10.18
2023-03-01T20:10:51.999Z,12.20
2023-03-01T20:13:21.216Z,11.07
2023-03-01T20:15:48.012Z,11.05
2023-03-01T20:18:15.193Z,9.80
2023-03-01T20:20:41.755Z,11.50
2023-03-01T20:23:08.540Z,9.98
2023-03-01T20:25:35.154Z,9.52
2023-03-01T20:28:01.836Z,10.63
2023-03-01T20:30:28.478Z,10.63
2023-03-01T20:32:55.134Z,11.13
2023-03-01T20:35:22.043Z,9.63
2023-03-01T20:37:53.132Z,9.07
2023-03-01T20:40:21.483Z,9.18
2023-03-01T20:42:48.212Z,11.60
2023-03-01T20:45:15.005Z,9.43
2023-03-01T20:47:41.695Z,9.70
2023-03-01T20:50:08.972Z,9.90
2023-03-01T20:52:45.854Z,9.43
2023-03-01T20:55:13.903Z,8.82
2023-03-01T20:57:40.543Z,10.38
2023-03-01T21:00:09.647Z,8.80
2023-03-01T21:02:36.310Z,9.77
2023-03-01T21:05:03.091Z,9.43
2023-03-01T21:07:29.693Z,8.60
2023-03-01T21:09:56.381Z,9.73
2023-03-01T21:12:23.033Z,10.40
2023-03-01T21:14:49.737Z,8.63
2023-03-01T21:17:17.662Z,11.00
2023-03-01T21:19:44.911Z,9.07
2023-03-01T21:22:13.605Z,9.82
2023-03-01T21:24:40.594Z,9.27
2023-03-01T21:27:07.180Z,11.23
2023-03-01T21:29:45.256Z,11.43
2023-03-01T21:32:13.439Z,10.55
2023-03-01T21:34:40.968Z,10.57
2023-03-01T21:37:08.799Z,10.40
2023-03-01T21:39:35.665Z,11.18
2023-03-01T21:42:04.406Z,11.32
2023-03-01T21:44:31.859Z,12.35
2023-03-01T21:46:59.116Z,15.43
2023-03-01T21:49:26.458Z,12.05
2023-03-01T21:51:53.310Z,12.98
2023-03-01T21:54:20.416Z,14.02
2023-03-01T21:56:48.214Z,13.75
2023-03-01T21:59:20.479Z,11.70
2023-03-01T22:01:48.068Z,14.75
2023-03-01T22:04:15.466Z,14.50
2023-03-01T22:06:44.748Z,12.75
2023-03-01T22:09:20.088Z,13.43
2023-03-01T22:11:51.760Z,13.25
2023-03-01T22:14:19.034Z,18.73
2023-03-01T22:16:47.677Z,14.10
2023-03-01T22:19:15.925Z,14.77
2023-03-01T22:21:44.285Z,13.90
2023-03-01T22:24:11.606Z,14.75
2023-03-01T22:26:40.677Z,13.25
2023-03-01T22:29:10.522Z,13.88
2023-03-01T22:31:37.715Z,15.27
2023-03-01T22:34:05.099Z,15.77
2023-03-01T22:36:32.272Z,13.65
2023-03-01T22:39:02.242Z,15.38
2023-03-01T22:41:49.615Z,16.88
2023-03-01T22:44:19.379Z,15.43
2023-03-01T22:46:46.410Z,14.05
2023-03-01T22:49:16.411Z,15.60
2023-03-01T22:51:43.701Z,15.52
2023-03-01T22:54:11.306Z,14.35
2023-03-01T22:56:38.929Z,15.38
2023-03-01T22:59:11.022Z,13.18
2023-03-01T23:01:38.954Z,14.65
2023-03-01T23:04:05.706Z,13.60
2023-03-01T23:06:32.620Z,14.18
2023-03-01T23:09:01.375Z,15.40
2023-03-01T23:11:28.374Z,17.10
2023-03-01T23:13:55.678Z,15.63
2023-03-01T23:16:26.726Z,14.95
2023-03-01T23:18:59.123Z,16.25
2023-03-01T23:21:26.180Z,15.25
2023-03-01T23:23:54.964Z,15.07
2023-03-01T23:26:22.452Z,15.23
2023-03-01T23:28:50.842Z,16.23
2023-03-01T23:31:18.124Z,16.05
2023-03-01T23:33:45.807Z,16.27
2023-03-01T23:36:19.531Z,16.10
2023-03-01T23:38:47.276Z,16.85
2023-03-01T23:41:16.526Z,15.25
2023-03-01T23:43:49.078Z,16.58
2023-03-01T23:46:17.471Z,15.68
2023-03-01T23:48:44.700Z,16.40
2023-03-01T23:51:12.237Z,15.35
2023-03-01T23:53:41.692Z,15.85
2023-03-01T23:56:12.212Z,16.98
2023-03-01T23:58:38.900Z,16.75
